createdAt,value
2022-09-09T00:01:47.507Z,99.90
2022-09-09T00:04:21.690Z,99.90
2022-09-09T00:07:14.877Z,99.90
2022-09-09T00:09:55.017Z,99.90
2022-09-09T00:12:30.429Z,99.90
2022-09-09T00:15:08.524Z,99.90
2022-09-09T00:17:50.829Z,99.90
2022-09-09T00:20:26.879Z,99.90
2022-09-09T00:23:22.368Z,99.90
2022-09-09T00:25:54.131Z,99.90
2022-09-09T00:28:25.543Z,99.90
2022-09-09T00:30:52.369Z,99.90
2022-09-09T00:33:23.591Z,99.90
2022-09-09T00:35:53.091Z,99.90
2022-09-09T00:38:28.173Z,99.90
2022-09-09T00:41:22.334Z,99.90
2022-09-09T00:44:14.303Z,99.90
2022-09-09T00:47:14.749Z,99.90
2022-09-09T00:50:30.618Z,99.90
2022-09-09T00:52:57.344Z,99.90
2022-09-09T00:55:42.619Z,99.90
2022-09-09T00:58:13.342Z,99.90
2022-09-09T01:01:01.445Z,99.90
2022-09-09T01:03:43.709Z,99.90
2022-09-09T01:06:32.603Z,99.90
2022-09-09T01:09:22.058Z,99.90
2022-09-09T01:12:11.126Z,99.90
2022-09-09T01:14:43.399Z,99.90
2022-09-09T01:17:16.783Z,99.90
2022-09-09T01:20:13.871Z,99.90
2022-09-09T01:23:13.142Z,99.90
2022-09-09T01:26:15.386Z,99.90
2022-09-09T01:28:47.760Z,99.90
2022-09-09T01:31:19.178Z,99.90
2022-09-09T01:33:48.757Z,99.90
2022-09-09T01:36:39.281Z,99.90
2022-09-09T01:39:06.047Z,99.90
2022-09-09T01:41:33.064Z,99.90
2022-09-09T01:44:02.332Z,99.90
2022-09-09T01:46:30.139Z,99.90
2022-09-09T01:48:58.157Z,99.90
2022-09-09T01:51:25.067Z,99.90
2022-09-09T01:53:51.731Z,99.90
2022-09-09T01:56:53.100Z,99.90
2022-09-09T01:59:33.278Z,99.90
2022-09-09T02:02:11.927Z,99.90
2022-09-09T02:04:50.812Z,99.90
2022-09-09T02:07:32.779Z,99.90
2022-09-09T02:10:16.139Z,99.90
2022-09-09T02:12:50.430Z,99.90
2022-09-09T02:15:43.519Z,99.90
2022-09-09T02:18:16.048Z,99.90
2022-09-09T02:20:47.340Z,99.90
2022-09-09T02:23:15.405Z,99.90
2022-09-09T02:25:45.139Z,99.90
2022-09-09T02:28:16.674Z,99.90
2022-09-09T02:30:45.055Z,99.90
2022-09-09T02:33:13.951Z,99.90
2022-09-09T02:35:46.124Z,99.90
2022-09-09T02:38:17.374Z,99.90
2022-09-09T02:40:44.002Z,99.90
2022-09-09T02:43:10.678Z,99.90
2022-09-09T02:45:54.187Z,99.90
2022-09-09T02:48:32.569Z,99.90
2022-09-09T02:51:07.391Z,99.90
2022-09-09T02:53:58.836Z,99.90
2022-09-09T02:56:29.477Z,99.90
2022-09-09T02:58:58.676Z,99.90
2022-09-09T03:01:25.395Z,99.90
2022-09-09T03:03:52.151Z,99.90
2022-09-09T03:06:18.718Z,99.90
2022-09-09T03:08:49.620Z,99.90
2022-09-09T03:11:17.837Z,99.90
2022-09-09T03:13:44.558Z,99.90
2022-09-09T03:16:11.282Z,99.90
2022-09-09T03:18:38.009Z,99.90
2022-09-09T03:21:04.725Z,99.90
2022-09-09T03:23:31.446Z,99.90
2022-09-09T03:25:59.656Z,99.90
2022-09-09T03:28:31.884Z,99.90
2022-09-09T03:31:02.529Z,99.90
2022-09-09T03:33:30.427Z,99.90
2022-09-09T03:35:59.509Z,99.90
2022-09-09T03:38:26.532Z,99.90
2022-09-09T03:40:56.292Z,99.90
2022-09-09T03:43:23.528Z,99.90
2022-09-09T03:45:50.760Z,99.90
2022-09-09T03:48:18.447Z,99.90
2022-09-09T03:50:46.697Z,99.90
2022-09-09T03:53:13.408Z,99.90
2022-09-09T03:55:40.015Z,99.90
2022-09-09T03:58:06.626Z,99.90
2022-09-09T04:00:35.928Z,99.90
2022-09-09T04:03:03.263Z,99.90
2022-09-09T04:05:29.983Z,99.90
2022-09-09T04:07:56.564Z,99.90
2022-09-09T04:10:23.145Z,99.90
2022-09-09T04:12:49.756Z,99.90
2022-09-09T04:15:16.674Z,99.90
2022-09-09T04:17:43.395Z,99.90
2022-09-09T04:20:13.085Z,99.90
2022-09-09T04:22:39.783Z,99.90
2022-09-09T04:25:07.239Z,99.90
2022-09-09T04:27:34.221Z,99.90
2022-09-09T04:30:00.811Z,99.90
2022-09-09T04:32:30.402Z,99.90
2022-09-09T04:34:57.043Z,99.90
2022-09-09T04:37:26.046Z,99.90
2022-09-09T04:39:52.719Z,99.90
2022-09-09T04:42:20.455Z,99.90
2022-09-09T04:44:47.066Z,99.90
2022-09-09T04:47:15.351Z,99.90
2022-09-09T04:49:42.018Z,99.90
2022-09-09T04:52:08.656Z,99.90
2022-09-09T04:54:35.951Z,99.90
2022-09-09T04:57:02.976Z,99.90
2022-09-09T04:59:31.767Z,99.90
2022-09-09T05:02:01.828Z,99.90
2022-09-09T05:04:29.717Z,99.90
2022-09-09T05:06:59.176Z,99.90
2022-09-09T05:09:26.132Z,99.90
2022-09-09T05:11:52.806Z,99.90
2022-09-09T05:14:19.552Z,99.90
2022-09-09T05:16:48.005Z,99.90
2022-09-09T05:19:14.648Z,99.90
2022-09-09T05:21:42.597Z,99.90
2022-09-09T05:24:09.288Z,99.90
2022-09-09T05:26:35.923Z,99.90
2022-09-09T05:29:02.666Z,99.90
2022-09-09T05:31:31.679Z,99.90
2022-09-09T05:33:59.909Z,99.90
2022-09-09T05:36:26.544Z,99.90
2022-09-09T05:38:54.705Z,99.90
2022-09-09T05:41:21.415Z,99.90
2022-09-09T05:43:49.743Z,99.90
2022-09-09T05:46:22.516Z,99.90
2022-09-09T05:48:51.848Z,99.90
2022-09-09T05:51:27.475Z,99.90
2022-09-09T05:53:56.024Z,99.90
2022-09-09T05:56:26.161Z,99.90
2022-09-09T05:58:54.941Z,99.90
2022-09-09T06:01:27.474Z,99.90
2022-09-09T06:03:54.412Z,99.90
2022-09-09T06:06:23.255Z,99.90
2022-09-09T06:08:52.810Z,99.90
2022-09-09T06:11:28.583Z,99.90
2022-09-09T06:13:55.629Z,99.90
2022-09-09T06:16:25.625Z,99.90
2022-09-09T06:18:54.015Z,99.90
2022-09-09T06:21:27.403Z,99.90
2022-09-09T06:24:00.345Z,99.90
2022-09-09T06:26:31.671Z,99.90
2022-09-09T06:28:59.601Z,99.90
2022-09-09T06:31:31.081Z,99.90
2022-09-09T06:33:59.626Z,99.90
2022-09-09T06:36:35.175Z,99.90
2022-09-09T06:39:01.857Z,99.90
2022-09-09T06:41:30.945Z,99.90
2022-09-09T06:43:58.017Z,99.90
2022-09-09T06:46:31.251Z,99.90
2022-09-09T06:48:59.860Z,99.90
2022-09-09T06:51:32.242Z,99.90
2022-09-09T06:54:00.943Z,99.90
2022-09-09T06:56:30.354Z,99.90
2022-09-09T06:59:05.579Z,99.90
2022-09-09T07:01:35.424Z,99.90
2022-09-09T07:04:05.192Z,99.90
2022-09-09T07:06:34.160Z,99.90
2022-09-09T07:09:05.031Z,99.90
2022-09-09T07:11:39.241Z,99.90
2022-09-09T07:14:05.989Z,99.90
2022-09-09T07:16:34.517Z,99.90
2022-09-09T07:19:01.476Z,99.90
2022-09-09T07:21:29.580Z,99.90
2022-09-09T07:23:57.301Z,99.90
2022-09-09T07:26:29.666Z,99.90
2022-09-09T07:28:58.024Z,99.90
2022-09-09T07:31:28.698Z,99.90
2022-09-09T07:33:55.533Z,99.90
2022-09-09T07:36:32.673Z,99.90
2022-09-09T07:39:18.279Z,99.90
2022-09-09T07:41:47.718Z,99.90
2022-09-09T07:44:22.493Z,99.90
2022-09-09T07:46:49.889Z,99.90
2022-09-09T07:49:16.736Z,99.90
2022-09-09T07:51:46.591Z,99.90
2022-09-09T07:54:18.277Z,99.90
2022-09-09T07:56:45.039Z,99.90
2022-09-09T07:59:12.839Z,99.90
2022-09-09T08:01:45.270Z,99.90
2022-09-09T08:04:19.744Z,99.90
2022-09-09T08:06:53.807Z,99.90
2022-09-09T08:09:21.781Z,99.90
2022-09-09T08:11:48.949Z,99.90
2022-09-09T08:14:15.959Z,99.90
2022-09-09T08:16:45.932Z,99.90
2022-09-09T08:19:16.288Z,99.90
2022-09-09T08:21:46.116Z,99.90
2022-09-09T08:24:14.836Z,99.90
2022-09-09T08:26:46.224Z,99.90
2022-09-09T08:29:14.794Z,99.90
2022-09-09T08:31:47.427Z,99.90
2022-09-09T08:34:14.526Z,99.90
2022-09-09T08:36:45.904Z,99.90
2022-09-09T08:39:20.321Z,99.90
2022-09-09T08:42:20.550Z,99.90
2022-09-09T08:45:15.196Z,99.90
2022-09-09T08:48:06.427Z,99.90
2022-09-09T08:50:39.582Z,99.90
2022-09-09T08:53:17.385Z,99.90
2022-09-09T08:55:47.231Z,99.90
2022-09-09T08:58:21.072Z,99.90
2022-09-09T09:01:00.595Z,99.90
2022-09-09T09:03:55.066Z,99.90
2022-09-09T09:06:31.759Z,99.90
2022-09-09T09:09:09.769Z,99.90
2022-09-09T09:11:45.085Z,99.90
2022-09-09T09:17:02.112Z,99.90
2022-09-09T09:19:31.108Z,99.90
2022-09-09T09:22:18.864Z,99.90
2022-09-09T09:24:57.715Z,99.90
2022-09-09T09:27:40.476Z,99.90
2022-09-09T09:30:26.728Z,99.90
2022-09-09T09:33:00.676Z,99.90
2022-09-09T09:35:27.507Z,99.90
2022-09-09T09:40:59.100Z,99.90
2022-09-09T09:43:40.765Z,99.90
2022-09-09T09:46:28.405Z,99.90
2022-09-09T09:49:09.736Z,99.90
2022-09-09T09:51:37.474Z,99.90
2022-09-09T09:54:28.621Z,99.90
2022-09-09T09:56:55.569Z,99.90
2022-09-09T09:59:44.021Z,99.90
2022-09-09T10:02:15.081Z,99.90
2022-09-09T10:04:42.364Z,99.90
2022-09-09T10:07:20.953Z,99.90
2022-09-09T10:09:58.000Z,99.90
2022-09-09T10:12:38.570Z,99.90
2022-09-09T10:15:32.643Z,99.90
2022-09-09T10:18:37.121Z,99.90
2022-09-09T10:21:21.604Z,99.90
2022-09-09T10:24:08.273Z,99.90
2022-09-09T10:26:45.373Z,99.90
2022-09-09T10:29:51.862Z,99.90
2022-09-09T10:32:39.739Z,99.90
2022-09-09T10:35:37.737Z,99.90
2022-09-09T10:38:25.172Z,99.90
2022-09-09T10:41:00.565Z,99.90
2022-09-09T10:43:47.063Z,99.90
2022-09-09T10:46:39.640Z,99.90
2022-09-09T10:49:22.656Z,99.90
2022-09-09T10:51:52.627Z,99.90
2022-09-09T10:54:40.566Z,99.90
2022-09-09T10:57:23.571Z,99.90
2022-09-09T10:59:54.369Z,99.90
2022-09-09T11:02:30.461Z,99.90
2022-09-09T11:05:11.579Z,99.90
2022-09-09T11:07:53.596Z,99.90
2022-09-09T11:10:49.682Z,99.90
2022-09-09T11:13:23.508Z,99.90
2022-09-09T11:15:55.916Z,99.90
2022-09-09T11:18:24.799Z,99.90
2022-09-09T11:21:02.622Z,99.90
2022-09-09T11:23:53.301Z,98.70
2022-09-09T11:26:47.840Z,95.50
2022-09-09T11:29:36.344Z,97.40
2022-09-09T11:32:20.397Z,98.70
2022-09-09T11:35:14.472Z,99.90
2022-09-09T11:38:08.133Z,99.90
2022-09-09T11:40:35.256Z,99.90
2022-09-09T11:43:09.833Z,99.90
2022-09-09T11:45:37.657Z,99.90
2022-09-09T11:48:23.038Z,99.90
2022-09-09T11:51:00.308Z,99.90
2022-09-09T11:53:32.280Z,99.90
2022-09-09T11:56:06.989Z,99.90
2022-09-09T11:58:38.916Z,99.90
2022-09-09T12:01:30.924Z,99.90
2022-09-09T12:04:10.477Z,99.90
2022-09-09T12:06:50.391Z,99.90
2022-09-09T12:09:29.647Z,99.20
2022-09-09T12:12:23.641Z,98.40
2022-09-09T12:14:58.303Z,96.50
2022-09-09T12:17:27.608Z,95.50
2022-09-09T12:20:18.476Z,97.50
2022-09-09T12:23:39.599Z,98.00
2022-09-09T12:26:06.387Z,99.60
2022-09-09T12:28:42.804Z,99.90
2022-09-09T12:31:23.079Z,99.90
2022-09-09T12:33:53.658Z,99.90
2022-09-09T12:36:25.027Z,99.90
2022-09-09T12:38:53.214Z,99.90
2022-09-09T12:41:26.009Z,99.90
2022-09-09T12:44:04.146Z,99.90
2022-09-09T12:46:43.098Z,99.90
2022-09-09T12:49:35.039Z,99.90
2022-09-09T12:52:28.158Z,99.90
2022-09-09T12:54:57.699Z,99.90
2022-09-09T12:57:26.517Z,99.90
2022-09-09T13:00:04.623Z,99.90
2022-09-09T13:02:31.422Z,99.90
2022-09-09T13:05:14.280Z,99.90
2022-09-09T13:07:41.026Z,99.90
2022-09-09T13:10:15.329Z,99.90
2022-09-09T13:12:49.265Z,99.90
2022-09-09T13:15:27.504Z,99.90
2022-09-09T13:17:57.583Z,99.90
2022-09-09T13:20:25.957Z,99.90
2022-09-09T13:22:55.679Z,99.90
2022-09-09T13:25:28.402Z,99.90
2022-09-09T13:28:03.482Z,99.90
2022-09-09T13:30:41.986Z,99.90
2022-09-09T13:33:18.403Z,99.90
2022-09-09T13:36:08.816Z,99.90
2022-09-09T13:38:57.915Z,99.90
2022-09-09T13:41:37.178Z,99.90
2022-09-09T13:44:08.540Z,99.90
2022-09-09T13:46:35.214Z,99.90
2022-09-09T13:49:20.407Z,99.90
2022-09-09T13:51:53.224Z,99.90
2022-09-09T13:54:21.788Z,99.90
2022-09-09T13:56:50.691Z,99.90
2022-09-09T13:59:30.694Z,99.90
2022-09-09T14:02:09.636Z,99.90
2022-09-09T14:04:36.354Z,99.90
2022-09-09T14:07:04.374Z,99.90
2022-09-09T14:09:31.115Z,99.90
2022-09-09T14:11:58.393Z,99.90
2022-09-09T14:14:26.657Z,99.90
2022-09-09T14:16:53.360Z,99.90
2022-09-09T14:19:20.101Z,99.90
2022-09-09T14:21:49.638Z,99.90
2022-09-09T14:24:16.554Z,99.90
2022-09-09T14:26:43.300Z,99.90
2022-09-09T14:29:09.985Z,99.90
2022-09-09T14:31:36.680Z,99.90
2022-09-09T14:34:03.345Z,99.90
2022-09-09T14:36:30.441Z,99.90
2022-09-09T14:38:57.151Z,99.90
2022-09-09T14:41:26.195Z,99.90
2022-09-09T14:43:52.855Z,99.90
2022-09-09T14:46:24.144Z,99.90
2022-09-09T14:48:50.901Z,99.90
2022-09-09T14:51:23.363Z,99.90
2022-09-09T14:53:53.932Z,99.90
2022-09-09T14:56:23.091Z,99.90
2022-09-09T14:58:50.282Z,99.90
2022-09-09T15:01:19.481Z,99.90
2022-09-09T15:03:58.877Z,99.90
2022-09-09T15:06:30.983Z,99.90
2022-09-09T15:09:01.244Z,99.90
2022-09-09T15:11:31.476Z,99.90
2022-09-09T15:13:59.150Z,99.90
2022-09-09T15:16:29.012Z,99.90
2022-09-09T15:18:57.846Z,99.90
2022-09-09T15:21:27.269Z,99.90
2022-09-09T15:23:54.212Z,99.90
2022-09-09T15:26:21.773Z,99.90
2022-09-09T15:28:52.326Z,99.90
2022-09-09T15:31:18.907Z,99.90
2022-09-09T15:33:49.826Z,99.90
2022-09-09T15:36:24.669Z,99.90
2022-09-09T15:38:54.431Z,99.90
2022-09-09T15:41:25.306Z,99.90
2022-09-09T15:44:00.110Z,99.90
2022-09-09T15:46:41.328Z,97.00
2022-09-09T15:49:15.792Z,95.80
2022-09-09T15:51:47.078Z,95.20
2022-09-09T15:54:21.880Z,96.30
2022-09-09T15:56:56.531Z,97.90
2022-09-09T15:59:24.432Z,98.50
2022-09-09T16:01:53.896Z,99.50
2022-09-09T16:04:24.260Z,99.90
2022-09-09T16:07:01.161Z,99.90
2022-09-09T16:09:28.761Z,99.90
2022-09-09T16:12:02.519Z,99.90
2022-09-09T16:14:29.476Z,99.90
2022-09-09T16:16:58.219Z,99.90
2022-09-09T16:19:26.981Z,99.90
2022-09-09T16:21:56.132Z,99.90
2022-09-09T16:24:23.219Z,99.90
2022-09-09T16:26:53.221Z,99.90
2022-09-09T16:29:23.222Z,99.90
2022-09-09T16:31:50.934Z,99.90
2022-09-09T16:34:19.379Z,99.90
2022-09-09T16:36:47.668Z,99.90
2022-09-09T16:39:16.679Z,99.90
2022-09-09T16:41:45.602Z,99.90
2022-09-09T16:44:20.341Z,99.90
2022-09-09T16:46:49.577Z,99.90
2022-09-09T16:49:16.827Z,99.90
2022-09-09T16:51:54.002Z,99.90
2022-09-09T16:54:24.343Z,99.90
2022-09-09T16:56:50.971Z,99.90
2022-09-09T16:59:19.748Z,99.90
2022-09-09T17:01:49.399Z,99.90
2022-09-09T17:04:25.019Z,99.90
2022-09-09T17:06:54.178Z,99.90
2022-09-09T17:09:23.344Z,99.90
2022-09-09T17:11:53.263Z,99.90
2022-09-09T17:14:21.951Z,99.90
2022-09-09T17:16:49.087Z,99.90
2022-09-09T17:19:16.351Z,99.90
2022-09-09T17:22:06.026Z,99.90
2022-09-09T17:24:30.615Z,99.90
2022-09-09T17:26:58.632Z,99.90
2022-09-09T17:29:25.891Z,99.90
2022-09-09T17:31:52.893Z,99.90
2022-09-09T17:34:19.568Z,99.90
2022-09-09T17:36:46.276Z,99.90
2022-09-09T17:39:15.141Z,99.90
2022-09-09T17:41:41.823Z,99.90
2022-09-09T17:44:10.492Z,99.90
2022-09-09T17:46:41.158Z,99.90
2022-09-09T17:49:12.733Z,99.90
2022-09-09T17:51:42.174Z,99.90
2022-09-09T17:54:15.480Z,99.90
2022-09-09T17:56:42.864Z,99.90
2022-09-09T17:59:12.070Z,99.90
2022-09-09T18:01:40.953Z,99.90
2022-09-09T18:04:12.323Z,99.90
2022-09-09T18:06:41.831Z,99.90
2022-09-09T18:09:13.801Z,99.90
2022-09-09T18:11:49.288Z,99.90
2022-09-09T18:14:20.172Z,99.90
2022-09-09T18:16:47.539Z,99.90
2022-09-09T18:19:20.190Z,99.90
2022-09-09T18:21:49.877Z,99.90
2022-09-09T18:24:20.555Z,99.90
2022-09-09T18:26:48.234Z,99.90
2022-09-09T18:29:19.913Z,99.90
2022-09-09T18:31:47.865Z,99.90
2022-09-09T18:34:16.898Z,99.90
2022-09-09T18:36:46.758Z,99.90
2022-09-09T18:39:17.741Z,99.90
2022-09-09T18:41:47.067Z,99.90
2022-09-09T18:44:20.560Z,99.90
2022-09-09T18:46:47.814Z,99.90
2022-09-09T18:49:18.036Z,99.90
2022-09-09T18:51:46.480Z,99.90
2022-09-09T18:54:17.612Z,99.90
2022-09-09T18:56:50.074Z,99.90
2022-09-09T18:59:19.574Z,99.90
2022-09-09T19:01:50.767Z,99.90
2022-09-09T19:04:19.656Z,99.90
2022-09-09T19:06:48.064Z,99.90
2022-09-09T19:09:17.583Z,99.90
2022-09-09T19:11:45.580Z,99.90
2022-09-09T19:14:16.640Z,99.90
2022-09-09T19:16:45.210Z,99.90
2022-09-09T19:19:26.606Z,99.90
2022-09-09T19:21:55.236Z,99.90
2022-09-09T19:24:24.651Z,99.90
2022-09-09T19:26:54.882Z,99.90
2022-09-09T19:29:27.353Z,99.90
2022-09-09T19:34:46.536Z,99.90
2022-09-09T19:37:18.224Z,99.90
2022-09-09T19:39:46.581Z,99.90
2022-09-09T19:42:13.342Z,99.90
2022-09-09T19:44:42.391Z,99.90
2022-09-09T19:47:09.113Z,99.90
2022-09-09T19:49:37.027Z,99.90
2022-09-09T19:52:04.315Z,99.90
2022-09-09T19:54:30.949Z,99.90
2022-09-09T19:56:57.669Z,99.90
2022-09-09T19:59:24.386Z,99.90
2022-09-09T20:01:51.416Z,99.90
2022-09-09T20:04:18.633Z,99.90
2022-09-09T20:06:45.881Z,99.90
2022-09-09T20:09:15.564Z,99.90
2022-09-09T20:11:43.474Z,99.90
2022-09-09T20:14:11.582Z,99.90
2022-09-09T20:16:39.570Z,99.90
2022-09-09T20:19:11.556Z,99.90
2022-09-09T20:21:47.321Z,99.90
2022-09-09T20:24:16.770Z,99.90
2022-09-09T20:26:44.606Z,99.90
2022-09-09T20:29:16.148Z,99.90
2022-09-09T20:31:43.899Z,99.90
2022-09-09T20:34:14.018Z,99.90
2022-09-09T20:36:41.564Z,99.90
2022-09-09T20:39:14.999Z,99.90
2022-09-09T20:41:45.266Z,99.90
2022-09-09T20:44:14.548Z,99.90
2022-09-09T20:46:54.120Z,99.90
2022-09-09T20:49:22.429Z,99.90
2022-09-09T20:51:52.694Z,99.90
2022-09-09T20:54:25.121Z,99.90
2022-09-09T20:56:54.972Z,99.90
2022-09-09T20:59:27.063Z,99.90
2022-09-09T21:01:54.923Z,99.90
2022-09-09T21:04:22.267Z,99.90
2022-09-09T21:06:52.649Z,99.90
2022-09-09T21:09:20.652Z,99.90
2022-09-09T21:11:47.415Z,99.90
2022-09-09T21:14:14.529Z,99.90
2022-09-09T21:16:41.178Z,99.90
2022-09-09T21:19:07.891Z,99.90
2022-09-09T21:21:34.689Z,99.90
2022-09-09T21:24:02.816Z,99.90
2022-09-09T21:26:29.600Z,99.90
2022-09-09T21:28:56.267Z,99.90
2022-09-09T21:31:28.339Z,99.90
2022-09-09T21:33:58.545Z,99.90
2022-09-09T21:36:27.996Z,99.90
2022-09-09T21:38:56.702Z,99.90
2022-09-09T21:41:23.477Z,99.90
2022-09-09T21:43:55.700Z,99.90
2022-09-09T21:46:23.197Z,99.90
2022-09-09T21:48:52.613Z,99.90
2022-09-09T21:51:19.257Z,99.90
2022-09-09T21:53:46.155Z,99.90
2022-09-09T21:56:16.225Z,99.90
2022-09-09T21:58:43.043Z,99.90
2022-09-09T22:01:15.505Z,99.90
2022-09-09T22:03:43.139Z,99.90
2022-09-09T22:06:12.625Z,99.90
2022-09-09T22:08:39.688Z,99.90
2022-09-09T22:11:08.766Z,99.90
2022-09-09T22:13:39.149Z,99.90
2022-09-09T22:16:08.450Z,99.90
2022-09-09T22:18:38.574Z,99.90
2022-09-09T22:21:16.381Z,99.90
2022-09-09T22:23:43.096Z,99.90
2022-09-09T22:26:10.629Z,99.90
2022-09-09T22:28:38.540Z,99.90
2022-09-09T22:31:08.031Z,99.90
2022-09-09T22:33:35.796Z,99.90
2022-09-09T22:36:03.258Z,99.90
2022-09-09T22:38:29.967Z,99.90
2022-09-09T22:40:56.599Z,99.90
2022-09-09T22:43:23.689Z,99.90
2022-09-09T22:45:51.064Z,99.90
2022-09-09T22:48:18.162Z,99.90
2022-09-09T22:50:45.200Z,99.90
2022-09-09T22:53:19.465Z,99.90
2022-09-09T22:56:00.985Z,99.90
2022-09-09T22:58:34.439Z,99.90
2022-09-09T23:01:09.911Z,99.90
2022-09-09T23:03:36.892Z,99.90
2022-09-09T23:06:04.157Z,99.90
2022-09-09T23:08:33.434Z,99.90
2022-09-09T23:11:08.751Z,99.90
2022-09-09T23:13:43.018Z,99.90
2022-09-09T23:16:17.180Z,99.90
2022-09-09T23:18:43.858Z,99.90
2022-09-09T23:21:15.130Z,99.90
2022-09-09T23:23:42.962Z,99.90
2022-09-09T23:26:12.001Z,99.90
2022-09-09T23:28:42.392Z,99.90
2022-09-09T23:31:12.864Z,99.90
2022-09-09T23:33:40.511Z,99.90
2022-09-09T23:36:10.589Z,99.90
2022-09-09T23:38:38.406Z,99.90
2022-09-09T23:41:08.930Z,99.90
2022-09-09T23:43:39.327Z,99.90
2022-09-09T23:46:07.436Z,99.90
2022-09-09T23:48:39.094Z,99.90
2022-09-09T23:51:07.283Z,99.90
2022-09-09T23:53:36.378Z,99.90
2022-09-09T23:56:05.055Z,99.90
2022-09-09T23:58:32.425Z,99.90
